createdAt,value
2019-04-10T00:02:16.197Z,87.64
2019-04-10T00:04:48.063Z,87.75
2019-04-10T00:07:21.148Z,88.40
2019-04-10T00:09:53.603Z,87.32
2019-04-10T00:12:25.565Z,87.35
2019-04-10T00:14:57.603Z,88.38
2019-04-10T00:17:29.317Z,86.28
2019-04-10T00:20:02.402Z,87.17
2019-04-10T00:22:34.246Z,87.04
2019-04-10T00:25:06.197Z,86.40
2019-04-10T00:27:38.936Z,85.89
2019-04-10T00:30:11.298Z,87.07
2019-04-10T00:32:43.930Z,86.96
2019-04-10T00:35:15.631Z,86.64
2019-04-10T00:37:47.381Z,86.48
2019-04-10T00:40:19.330Z,85.78
2019-04-10T00:42:51.609Z,85.58
2019-04-10T00:45:23.652Z,85.87
2019-04-10T00:47:55.338Z,85.65
2019-04-10T00:50:27.145Z,85.98
2019-04-10T00:52:58.862Z,86.27
2019-04-10T00:55:30.603Z,85.97
2019-04-10T00:58:02.364Z,85.80
2019-04-10T01:00:36.455Z,85.58
2019-04-10T01:03:09.279Z,85.32
2019-04-10T01:05:41.646Z,85.26
2019-04-10T01:08:13.378Z,85.79
2019-04-10T01:10:46.236Z,85.67
2019-04-10T01:13:18.816Z,86.15
2019-04-10T01:15:51.002Z,85.79
2019-04-10T01:18:23.392Z,86.58
2019-04-10T01:20:55.691Z,85.60
2019-04-10T01:23:27.570Z,87.13
2019-04-10T01:25:59.597Z,87.02
2019-04-10T01:28:31.329Z,88.00
2019-04-10T01:31:03.225Z,87.02
2019-04-10T01:33:35.004Z,86.82
2019-04-10T01:36:07.021Z,86.03
2019-04-10T01:38:39.786Z,86.67
2019-04-10T01:41:11.865Z,86.78
2019-04-10T01:43:43.539Z,84.82
2019-04-10T01:46:15.915Z,85.96
2019-04-10T01:48:47.754Z,86.57
2019-04-10T01:51:19.808Z,86.72
2019-04-10T01:53:52.376Z,87.72
2019-04-10T01:56:30.187Z,87.77
2019-04-10T01:58:57.445Z,88.00
2019-04-10T02:01:32.696Z,87.73
2019-04-10T02:04:04.737Z,87.64
2019-04-10T02:06:36.495Z,87.23
2019-04-10T02:09:11.044Z,85.52
2019-04-10T02:11:42.997Z,85.20
2019-04-10T02:14:14.711Z,87.11
2019-04-10T02:16:47.296Z,88.85
2019-04-10T02:19:19.008Z,88.78
2019-04-10T02:21:51.652Z,88.23
2019-04-10T02:24:25.130Z,87.69
2019-04-10T02:26:58.120Z,88.41
2019-04-10T02:29:29.933Z,88.16
2019-04-10T02:32:02.168Z,87.78
2019-04-10T02:34:34.444Z,87.51
2019-04-10T02:37:06.861Z,87.13
2019-04-10T02:39:46.082Z,87.46
2019-04-10T02:42:14.252Z,88.04
2019-04-10T02:44:46.150Z,88.06
2019-04-10T02:47:19.220Z,87.41
2019-04-10T02:49:52.222Z,87.94
2019-04-10T02:52:24.633Z,88.43
2019-04-10T02:54:57.807Z,88.89
2019-04-10T02:57:29.878Z,88.30
2019-04-10T03:00:03.695Z,87.49
2019-04-10T03:02:38.697Z,88.27
2019-04-10T03:05:13.588Z,88.43
2019-04-10T03:07:46.429Z,88.29
2019-04-10T03:10:27.714Z,88.38
2019-04-10T03:12:52.596Z,87.91
2019-04-10T03:15:25.195Z,87.62
2019-04-10T03:17:57.167Z,87.82
2019-04-10T03:20:30.064Z,88.04
2019-04-10T03:23:02.062Z,88.03
2019-04-10T03:25:35.085Z,88.01
2019-04-10T03:28:07.213Z,88.12
2019-04-10T03:30:41.257Z,88.41
2019-04-10T03:33:33.753Z,88.18
2019-04-10T03:36:05.301Z,87.73
2019-04-10T03:38:49.453Z,88.23
2019-04-10T03:41:12.270Z,88.04
2019-04-10T03:43:45.810Z,88.07
2019-04-10T03:46:17.585Z,87.74
2019-04-10T03:48:49.505Z,87.73
2019-04-10T03:51:22.859Z,87.82
2019-04-10T03:53:54.931Z,87.88
2019-04-10T03:56:26.974Z,88.01
2019-04-10T03:58:59.877Z,87.93
2019-04-10T04:01:32.045Z,87.85
2019-04-10T04:04:04.885Z,87.78
2019-04-10T04:06:36.945Z,87.49
2019-04-10T04:09:11.581Z,87.22
2019-04-10T04:11:42.609Z,87.49
2019-04-10T04:14:14.488Z,87.43
2019-04-10T04:16:47.064Z,87.82
2019-04-10T04:19:18.960Z,87.29
2019-04-10T04:21:50.717Z,87.01
2019-04-10T04:24:25.488Z,87.12
2019-04-10T04:26:58.696Z,86.96
2019-04-10T04:29:30.536Z,87.02
2019-04-10T04:32:02.377Z,87.18
2019-04-10T04:34:34.678Z,87.63
2019-04-10T04:37:06.630Z,87.62
2019-04-10T04:39:39.616Z,87.48
2019-04-10T04:42:11.601Z,87.59
2019-04-10T04:44:43.461Z,87.36
2019-04-10T04:47:15.662Z,87.52
2019-04-10T04:49:47.667Z,87.37
2019-04-10T04:52:20.401Z,87.13
2019-04-10T04:54:53.275Z,86.96
2019-04-10T04:57:25.310Z,87.00
2019-04-10T04:59:57.063Z,87.45
2019-04-10T05:02:28.981Z,86.99
2019-04-10T05:05:00.754Z,86.96
2019-04-10T05:07:33.363Z,86.76
2019-04-10T05:10:07.046Z,86.20
2019-04-10T05:12:38.982Z,86.61
2019-04-10T05:15:12.874Z,86.62
2019-04-10T05:17:45.022Z,86.61
2019-04-10T05:20:17.088Z,86.39
2019-04-10T05:22:49.470Z,86.27
2019-04-10T05:25:22.323Z,86.28
2019-04-10T05:27:55.291Z,86.33
2019-04-10T05:30:27.305Z,86.69
2019-04-10T05:32:59.789Z,86.77
2019-04-10T05:35:32.050Z,87.03
2019-04-10T05:38:04.533Z,86.88
2019-04-10T05:40:36.722Z,86.81
2019-04-10T05:43:09.295Z,86.21
2019-04-10T05:45:42.175Z,87.28
2019-04-10T05:48:15.258Z,86.91
2019-04-10T05:50:54.899Z,86.09
2019-04-10T05:53:21.045Z,85.43
2019-04-10T05:55:53.800Z,86.42
2019-04-10T05:58:25.867Z,85.89
2019-04-10T06:00:59.263Z,86.30
2019-04-10T06:03:31.012Z,86.01
2019-04-10T06:06:04.074Z,85.74
2019-04-10T06:08:37.346Z,85.43
2019-04-10T06:11:09.305Z,84.98
2019-04-10T06:13:41.065Z,84.09
2019-04-10T06:16:12.874Z,83.82
2019-04-10T06:18:45.179Z,84.30
2019-04-10T06:21:17.108Z,84.28
2019-04-10T06:23:49.845Z,83.87
2019-04-10T06:26:21.974Z,85.26
2019-04-10T06:28:54.742Z,84.53
2019-04-10T06:31:26.658Z,83.37
2019-04-10T06:33:58.497Z,83.07
2019-04-10T06:36:33.324Z,83.71
2019-04-10T06:39:07.294Z,83.53
2019-04-10T06:41:39.130Z,82.61
2019-04-10T06:44:12.238Z,83.07
2019-04-10T06:46:44.477Z,82.59
2019-04-10T06:49:17.494Z,83.13
2019-04-10T06:51:49.482Z,82.17
2019-04-10T06:54:21.300Z,82.80
2019-04-10T06:56:53.117Z,82.89
2019-04-10T06:59:26.205Z,82.84
2019-04-10T07:02:11.392Z,81.53
2019-04-10T07:04:43.135Z,82.43
2019-04-10T07:07:10.951Z,82.84
2019-04-10T07:09:38.644Z,83.25
2019-04-10T07:12:12.195Z,82.69
2019-04-10T07:14:47.657Z,81.58
2019-04-10T07:17:17.994Z,82.12
2019-04-10T07:19:49.791Z,81.56
2019-04-10T07:22:22.830Z,81.55
2019-04-10T07:24:56.374Z,82.33
2019-04-10T07:27:33.515Z,81.24
2019-04-10T07:30:03.590Z,81.47
2019-04-10T07:32:36.137Z,81.39
2019-04-10T07:35:08.968Z,80.02
2019-04-10T07:37:40.778Z,82.08
2019-04-10T07:40:12.741Z,81.20
2019-04-10T07:42:44.571Z,79.85
2019-04-10T07:45:17.044Z,79.11
2019-04-10T07:47:48.854Z,78.83
2019-04-10T07:50:20.797Z,79.72
2019-04-10T07:52:52.559Z,78.04
2019-04-10T07:55:25.360Z,83.35
2019-04-10T07:57:57.398Z,80.09
2019-04-10T08:00:29.229Z,79.45
2019-04-10T08:03:00.989Z,79.13
2019-04-10T08:05:33.296Z,79.31
2019-04-10T08:08:05.277Z,78.62
2019-04-10T08:10:37.348Z,77.81
2019-04-10T08:13:09.179Z,78.46
2019-04-10T08:15:41.284Z,77.92
2019-04-10T08:18:13.347Z,78.74
2019-04-10T08:20:45.155Z,78.68
2019-04-10T08:23:17.565Z,78.13
2019-04-10T08:25:49.657Z,77.46
2019-04-10T08:28:22.047Z,76.87
2019-04-10T08:30:54.658Z,77.58
2019-04-10T08:33:26.485Z,78.84
2019-04-10T08:35:58.987Z,76.27
2019-04-10T08:38:30.776Z,75.16
2019-04-10T08:41:02.912Z,74.49
2019-04-10T08:43:34.644Z,75.14
2019-04-10T08:46:06.522Z,75.73
2019-04-10T08:48:39.194Z,76.17
2019-04-10T08:51:11.957Z,76.37
2019-04-10T08:53:44.599Z,75.66
2019-04-10T08:56:16.523Z,75.24
2019-04-10T08:58:48.398Z,75.48
2019-04-10T09:01:21.469Z,75.94
2019-04-10T09:03:53.555Z,76.00
2019-04-10T09:06:25.294Z,74.40
2019-04-10T09:08:57.258Z,75.89
2019-04-10T09:11:30.154Z,75.80
2019-04-10T09:14:03.135Z,75.51
2019-04-10T09:16:34.909Z,75.40
2019-04-10T09:19:06.785Z,73.16
2019-04-10T09:21:39.648Z,75.06
2019-04-10T09:24:14.571Z,74.77
2019-04-10T09:26:45.132Z,75.12
2019-04-10T09:29:18.093Z,74.57
2019-04-10T09:31:50.311Z,75.13
2019-04-10T09:34:23.352Z,74.04
2019-04-10T09:36:55.173Z,76.17
2019-04-10T09:39:29.600Z,75.29
2019-04-10T09:42:01.780Z,74.24
2019-04-10T09:44:35.837Z,73.45
2019-04-10T09:47:09.625Z,73.39
2019-04-10T09:49:45.857Z,73.27
2019-04-10T09:52:15.520Z,72.39
2019-04-10T09:54:47.361Z,72.31
2019-04-10T09:57:20.116Z,71.94
2019-04-10T09:59:52.627Z,71.41
2019-04-10T10:02:25.241Z,72.00
2019-04-10T10:04:57.785Z,71.35
2019-04-10T10:07:29.902Z,72.52
2019-04-10T10:10:02.163Z,73.36
2019-04-10T10:12:36.402Z,74.12
2019-04-10T10:15:09.507Z,70.14
2019-04-10T10:17:41.513Z,69.97
2019-04-10T10:20:15.376Z,70.12
2019-04-10T10:22:47.468Z,71.51
2019-04-10T10:25:19.513Z,70.14
2019-04-10T10:27:51.267Z,70.33
2019-04-10T10:30:23.325Z,70.33
2019-04-10T10:32:55.230Z,68.81
2019-04-10T10:35:27.328Z,67.46
2019-04-10T10:37:59.233Z,68.86
2019-04-10T10:40:32.240Z,70.76
2019-04-10T10:43:04.446Z,69.40
2019-04-10T10:45:36.689Z,68.96
2019-04-10T10:48:09.620Z,70.09
2019-04-10T10:50:41.642Z,69.07
2019-04-10T10:53:14.336Z,68.48
2019-04-10T10:55:47.514Z,66.63
2019-04-10T10:58:19.729Z,68.55
2019-04-10T11:00:51.766Z,67.02
2019-04-10T11:03:24.494Z,65.29
2019-04-10T11:05:56.437Z,66.99
2019-04-10T11:08:29.449Z,66.37
2019-04-10T11:11:01.521Z,66.08
2019-04-10T11:13:33.352Z,66.53
2019-04-10T11:16:07.106Z,63.82
2019-04-10T11:18:38.831Z,63.12
2019-04-10T11:21:12.749Z,65.56
2019-04-10T11:23:44.704Z,65.50
2019-04-10T11:26:21.510Z,64.85
2019-04-10T11:28:50.185Z,64.33
2019-04-10T11:31:23.788Z,63.95
2019-04-10T11:33:56.711Z,63.49
2019-04-10T11:36:29.995Z,64.11
2019-04-10T11:39:11.988Z,64.29
2019-04-10T11:41:37.398Z,64.66
2019-04-10T11:44:11.551Z,63.75
2019-04-10T11:46:44.022Z,61.24
2019-04-10T11:49:17.792Z,62.20
2019-04-10T11:51:52.993Z,63.15
2019-04-10T11:54:26.922Z,60.89
2019-04-10T11:57:19.816Z,60.36
2019-04-10T11:59:50.709Z,61.57
2019-04-10T12:02:24.956Z,62.26
2019-04-10T12:05:01.585Z,62.28
2019-04-10T12:08:00.062Z,62.20
2019-04-10T12:12:37.611Z,58.97
2019-04-10T12:15:10.197Z,58.97
2019-04-10T12:17:43.092Z,60.71
2019-04-10T12:20:16.632Z,61.30
2019-04-10T12:22:48.813Z,62.39
2019-04-10T12:25:21.274Z,57.23
2019-04-10T12:27:53.560Z,59.22
2019-04-10T12:30:26.922Z,59.69
2019-04-10T12:32:59.133Z,61.37
2019-04-10T12:35:31.916Z,60.11
2019-04-10T12:38:09.732Z,58.62
2019-04-10T12:40:38.950Z,58.80
2019-04-10T12:43:12.682Z,61.29
2019-04-10T12:45:44.587Z,58.56
2019-04-10T12:48:16.680Z,61.46
2019-04-10T12:50:49.495Z,59.59
2019-04-10T12:53:21.591Z,57.50
2019-04-10T12:55:53.641Z,59.22
2019-04-10T12:58:26.619Z,59.61
2019-04-10T13:00:58.520Z,58.84
2019-04-10T13:03:31.325Z,59.53
2019-04-10T13:06:03.388Z,59.09
2019-04-10T13:08:54.673Z,58.58
2019-04-10T13:11:10.019Z,58.59
2019-04-10T13:13:42.291Z,56.82
2019-04-10T13:16:14.279Z,58.06
2019-04-10T13:18:46.860Z,57.86
2019-04-10T13:21:20.238Z,57.78
2019-04-10T13:23:53.030Z,57.43
2019-04-10T13:26:26.013Z,55.43
2019-04-10T13:28:58.155Z,56.00
2019-04-10T13:31:30.045Z,56.17
2019-04-10T13:34:02.809Z,55.34
2019-04-10T13:36:35.630Z,53.95
2019-04-10T13:39:08.754Z,55.11
2019-04-10T13:41:40.828Z,55.55
2019-04-10T13:44:14.049Z,53.11
2019-04-10T13:46:45.929Z,52.70
2019-04-10T13:49:17.818Z,53.29
2019-04-10T13:51:50.072Z,53.21
2019-04-10T13:54:22.816Z,53.08
2019-04-10T13:56:55.215Z,52.73
2019-04-10T13:59:27.103Z,52.40
2019-04-10T14:01:59.003Z,53.07
2019-04-10T14:04:31.312Z,50.38
2019-04-10T14:07:04.935Z,53.02
2019-04-10T14:09:43.985Z,53.29
2019-04-10T14:12:12.890Z,54.10
2019-04-10T14:14:48.890Z,51.98
2019-04-10T14:17:21.534Z,51.34
2019-04-10T14:19:54.116Z,52.51
2019-04-10T14:22:26.102Z,52.57
2019-04-10T14:24:58.889Z,51.97
2019-04-10T14:27:32.097Z,51.28
2019-04-10T14:30:06.985Z,53.26
2019-04-10T14:32:39.858Z,52.61
2019-04-10T14:35:12.195Z,52.67
2019-04-10T14:37:43.951Z,52.56
2019-04-10T14:40:16.820Z,53.29
2019-04-10T14:42:49.442Z,53.51
2019-04-10T14:45:21.667Z,52.67
2019-04-10T14:47:53.936Z,52.84
2019-04-10T14:50:26.187Z,52.53
2019-04-10T14:52:59.155Z,53.06
2019-04-10T14:55:31.617Z,52.91
2019-04-10T14:58:03.971Z,52.74
2019-04-10T15:00:51.003Z,53.96
2019-04-10T15:03:24.369Z,52.74
2019-04-10T15:05:58.286Z,51.21
2019-04-10T15:08:31.472Z,53.43
2019-04-10T15:11:04.517Z,54.44
2019-04-10T15:13:36.698Z,54.85
2019-04-10T15:16:12.707Z,54.27
2019-04-10T15:18:45.838Z,54.88
2019-04-10T15:21:18.661Z,53.14
2019-04-10T15:23:51.079Z,54.66
2019-04-10T15:26:23.996Z,54.85
2019-04-10T15:28:56.250Z,54.14
2019-04-10T15:31:29.063Z,52.19
2019-04-10T15:34:01.629Z,54.17
2019-04-10T15:36:33.997Z,54.89
2019-04-10T15:39:09.223Z,54.72
2019-04-10T15:41:41.336Z,55.17
2019-04-10T15:44:15.371Z,54.36
2019-04-10T15:46:49.059Z,54.89
2019-04-10T15:49:21.170Z,54.05
2019-04-10T15:51:53.712Z,54.22
2019-04-10T15:54:25.818Z,55.36
2019-04-10T15:56:58.344Z,55.41
2019-04-10T15:59:30.326Z,53.85
2019-04-10T16:02:03.536Z,53.66
2019-04-10T16:04:35.842Z,53.55
2019-04-10T16:07:08.240Z,54.25
2019-04-10T16:09:47.468Z,54.32
2019-04-10T16:12:18.621Z,54.20
2019-04-10T16:14:50.917Z,54.73
2019-04-10T16:17:31.439Z,55.76
2019-04-10T16:20:17.601Z,55.50
2019-04-10T16:23:08.094Z,55.90
2019-04-10T16:25:44.763Z,55.68
2019-04-10T16:28:17.910Z,55.20
2019-04-10T16:30:50.900Z,55.67
2019-04-10T16:33:23.209Z,56.11
2019-04-10T16:35:55.251Z,55.80
2019-04-10T16:38:27.189Z,55.66
2019-04-10T16:40:58.963Z,55.42
2019-04-10T16:43:30.874Z,56.36
2019-04-10T16:46:03.265Z,56.81
2019-04-10T16:48:35.839Z,56.60
2019-04-10T16:51:08.144Z,57.35
2019-04-10T16:53:41.227Z,57.06
2019-04-10T16:56:21.400Z,57.54
2019-04-10T16:58:53.184Z,56.59
2019-04-10T17:01:25.188Z,56.21
2019-04-10T17:03:57.152Z,56.11
2019-04-10T17:06:30.262Z,56.65
2019-04-10T17:09:02.709Z,57.67
2019-04-10T17:11:36.864Z,55.89
2019-04-10T17:14:09.000Z,56.17
2019-04-10T17:16:41.951Z,56.37
2019-04-10T17:19:14.033Z,56.26
2019-04-10T17:21:46.739Z,55.70
2019-04-10T17:24:18.893Z,56.13
2019-04-10T17:26:52.054Z,56.34
2019-04-10T17:29:25.032Z,56.11
2019-04-10T17:31:57.156Z,56.08
2019-04-10T17:34:30.454Z,55.98
2019-04-10T17:37:02.898Z,56.04
2019-04-10T17:39:35.561Z,56.31
2019-04-10T17:42:08.111Z,56.34
2019-04-10T17:44:40.307Z,56.74
2019-04-10T17:47:12.739Z,56.97
2019-04-10T17:49:44.924Z,56.52
2019-04-10T17:52:17.057Z,56.84
2019-04-10T17:54:49.203Z,56.52
2019-04-10T17:57:33.657Z,56.64
2019-04-10T17:59:58.578Z,56.75
2019-04-10T18:03:19.074Z,56.31
2019-04-10T18:05:57.090Z,56.49
2019-04-10T18:08:30.102Z,56.66
2019-04-10T18:11:02.067Z,57.05
2019-04-10T18:13:38.413Z,57.12
2019-04-10T18:16:12.967Z,56.75
2019-04-10T18:18:45.702Z,56.34
2019-04-10T18:21:20.273Z,56.08
2019-04-10T18:23:52.526Z,55.83
2019-04-10T18:26:27.744Z,55.93
2019-04-10T18:29:00.852Z,56.13
2019-04-10T18:31:34.736Z,55.85
2019-04-10T18:34:10.163Z,55.83
2019-04-10T18:36:42.604Z,55.50
2019-04-10T18:39:19.408Z,55.37
2019-04-10T18:41:51.996Z,55.31
2019-04-10T18:44:25.333Z,55.03
2019-04-10T18:46:57.595Z,55.08
2019-04-10T18:49:29.842Z,55.01
2019-04-10T18:52:03.208Z,54.47
2019-04-10T18:54:36.050Z,54.92
2019-04-10T18:57:09.346Z,55.45
2019-04-10T18:59:54.606Z,54.76
2019-04-10T19:02:48.840Z,54.38
2019-04-10T19:05:24.751Z,54.45
2019-04-10T19:07:57.027Z,54.27
2019-04-10T19:10:30.605Z,54.27
2019-04-10T19:13:05.602Z,53.97
2019-04-10T19:15:39.913Z,54.59
2019-04-10T19:18:13.117Z,55.42
2019-04-10T19:20:45.631Z,55.23
2019-04-10T19:23:21.009Z,54.70
2019-04-10T19:25:54.674Z,54.87
2019-04-10T19:28:32.265Z,55.14
2019-04-10T19:31:11.102Z,55.41
2019-04-10T19:33:40.156Z,55.51
2019-04-10T19:36:12.170Z,55.22
2019-04-10T19:38:45.269Z,54.86
2019-04-10T19:41:25.750Z,54.94
2019-04-10T19:43:52.709Z,56.18
2019-04-10T19:46:25.842Z,56.36
2019-04-10T19:48:58.048Z,56.60
2019-04-10T19:51:30.319Z,54.94
2019-04-10T19:54:05.342Z,55.49
2019-04-10T19:56:37.001Z,55.63
2019-04-10T19:59:10.440Z,56.81
2019-04-10T20:01:42.752Z,56.36
2019-04-10T20:04:14.871Z,55.93
2019-04-10T20:06:47.042Z,56.18
2019-04-10T20:09:20.088Z,57.10
2019-04-10T20:11:55.282Z,57.10
2019-04-10T20:14:25.963Z,56.66
2019-04-10T20:16:58.117Z,56.91
2019-04-10T20:19:30.740Z,57.69
2019-04-10T20:22:04.114Z,57.56
2019-04-10T20:24:36.721Z,57.48
2019-04-10T20:27:09.909Z,56.76
2019-04-10T20:29:43.431Z,56.71
2019-04-10T20:32:17.857Z,56.89
2019-04-10T20:34:49.958Z,57.82
2019-04-10T20:37:22.930Z,57.88
2019-04-10T20:39:55.881Z,57.85
2019-04-10T20:42:28.166Z,57.57
2019-04-10T20:45:00.879Z,57.29
2019-04-10T20:47:35.139Z,57.29
2019-04-10T20:50:07.931Z,57.19
2019-04-10T20:52:41.033Z,57.24
2019-04-10T20:55:13.834Z,57.53
2019-04-10T20:57:46.122Z,57.37
2019-04-10T21:00:30.070Z,57.65
2019-04-10T21:03:02.837Z,57.90
2019-04-10T21:05:35.897Z,58.02
2019-04-10T21:08:09.305Z,58.07
2019-04-10T21:10:41.280Z,59.06
2019-04-10T21:13:13.280Z,58.26
2019-04-10T21:15:46.242Z,57.70
2019-04-10T21:18:19.507Z,57.91
2019-04-10T21:20:51.795Z,58.30
2019-04-10T21:23:23.831Z,58.49
2019-04-10T21:25:55.712Z,58.19
2019-04-10T21:28:28.314Z,58.35
2019-04-10T21:31:25.714Z,58.68
2019-04-10T21:34:20.254Z,58.90
2019-04-10T21:36:53.282Z,59.24
2019-04-10T21:39:25.583Z,58.94
2019-04-10T21:42:10.126Z,58.90
2019-04-10T21:44:31.497Z,59.16
2019-04-10T21:47:03.565Z,59.22
2019-04-10T21:49:35.943Z,58.93
2019-04-10T21:52:07.863Z,58.63
2019-04-10T21:54:48.521Z,58.78
2019-04-10T21:57:13.814Z,58.58
2019-04-10T21:59:45.714Z,59.24
2019-04-10T22:02:17.748Z,58.83
2019-04-10T22:04:49.838Z,58.89
2019-04-10T22:07:35.030Z,57.90
2019-04-10T22:10:17.905Z,57.77
2019-04-10T22:12:52.158Z,58.32
2019-04-10T22:15:31.190Z,58.54
2019-04-10T22:18:03.145Z,58.27
2019-04-10T22:20:36.023Z,58.56
2019-04-10T22:23:09.833Z,58.57
2019-04-10T22:25:41.742Z,59.16
2019-04-10T22:28:14.876Z,59.24
2019-04-10T22:30:46.922Z,58.65
2019-04-10T22:33:18.768Z,58.79
2019-04-10T22:35:50.971Z,58.82
2019-04-10T22:38:22.922Z,59.31
2019-04-10T22:40:55.975Z,59.06
2019-04-10T22:43:28.074Z,58.74
2019-04-10T22:46:00.465Z,59.25
2019-04-10T22:48:32.894Z,58.89
2019-04-10T22:51:07.967Z,58.94
2019-04-10T22:53:39.648Z,60.03
2019-04-10T22:56:11.690Z,59.65
2019-04-10T22:58:44.181Z,59.86
2019-04-10T23:01:16.167Z,60.15
2019-04-10T23:03:48.078Z,60.16
2019-04-10T23:06:20.831Z,60.30
2019-04-10T23:08:52.757Z,59.63
2019-04-10T23:11:34.847Z,59.93
2019-04-10T23:13:58.522Z,60.08
2019-04-10T23:16:30.499Z,59.95
2019-04-10T23:19:03.452Z,60.05
2019-04-10T23:21:36.603Z,60.27
2019-04-10T23:24:09.540Z,60.45
2019-04-10T23:26:41.607Z,60.44
2019-04-10T23:29:13.923Z,60.57
2019-04-10T23:31:45.889Z,60.27
2019-04-10T23:34:18.867Z,60.04
2019-04-10T23:36:50.879Z,60.32
2019-04-10T23:39:23.902Z,60.18
2019-04-10T23:41:56.906Z,60.24
2019-04-10T23:44:29.158Z,60.42
2019-04-10T23:47:02.046Z,60.09
2019-04-10T23:49:33.922Z,60.32
2019-04-10T23:52:07.606Z,60.00
2019-04-10T23:54:41.542Z,59.93
2019-04-10T23:57:13.592Z,59.85
2019-04-10T23:59:45.300Z,60.39
